Time;durP1;ratioP1;P1;durP2;ratioP2;P2;SDS_P1;SDS_P2;PMS_P1;PMS_P2;Temp;Humidity;BMP_temperature;BMP_pressure;BME280_temperature;BME280_humidity;BME280_pressure;Samples;Min_cycle;Max_cycle;Signal;HPM_P1;HPM_P2
2021/09/19 00:00:31;;;;;;;12.95;11.65;;;14.50;90.70;;;;;;5040307;28;20242;-74
2021/09/19 00:02:58;;;;;;;12.80;11.60;;;14.40;90.60;;;;;;5038811;28;20230;-74
2021/09/19 00:05:24;;;;;;;12.73;11.55;;;14.40;90.80;;;;;;5039701;28;20294;-76
2021/09/19 00:07:51;;;;;;;12.90;11.70;;;14.40;91.10;;;;;;5023231;28;20243;-74
2021/09/19 00:10:20;;;;;;;12.60;11.40;;;14.30;91.30;;;;;;5031270;28;20231;-76
2021/09/19 00:12:47;;;;;;;11.80;9.98;;;14.30;91.60;;;;;;5038435;28;20303;-76
2021/09/19 00:15:16;;;;;;;12.15;10.95;;;14.30;91.50;;;;;;5038041;28;20290;-75
2021/09/19 00:17:43;;;;;;;12.98;11.55;;;14.30;91.70;;;;;;5038304;28;20239;-75
2021/09/19 00:20:12;;;;;;;12.02;10.82;;;14.20;92.00;;;;;;5038038;28;20298;-74
2021/09/19 00:22:39;;;;;;;12.70;11.50;;;14.20;92.40;;;;;;5037927;28;20634;-75
2021/09/19 00:25:08;;;;;;;12.82;11.52;;;14.10;93.00;;;;;;5038458;28;20217;-74
2021/09/19 00:27:37;;;;;;;12.60;11.25;;;14.10;93.00;;;;;;5041663;28;20271;-75
2021/09/19 00:30:05;;;;;;;13.95;11.63;;;14.10;93.00;;;;;;5051723;28;20219;-76
2021/09/19 00:32:32;;;;;;;14.30;11.73;;;14.10;93.10;;;;;;5054500;28;20250;-77
2021/09/19 00:35:01;;;;;;;12.27;11.18;;;14.00;93.50;;;;;;5040217;28;20222;-75
2021/09/19 00:37:28;;;;;;;11.95;10.75;;;14.00;93.80;;;;;;5038164;28;20214;-75
2021/09/19 00:39:55;;;;;;;16.25;11.50;;;14.00;94.00;;;;;;5037451;28;20198;-75
2021/09/19 00:42:22;;;;;;;12.20;10.85;;;14.00;93.90;;;;;;5036702;28;20718;-74
2021/09/19 00:44:58;;;;;;;12.10;10.90;;;13.90;94.10;;;;;;5037898;28;20227;-74
2021/09/19 00:47:25;;;;;;;13.10;11.70;;;14.00;94.00;;;;;;5036438;28;20289;-74
2021/09/19 00:49:52;;;;;;;12.75;11.45;;;13.90;94.10;;;;;;5035912;28;20253;-76
2021/09/19 00:52:20;;;;;;;17.70;11.80;;;13.90;94.40;;;;;;5036731;28;20666;-75
2021/09/19 00:54:49;;;;;;;13.30;11.90;;;13.90;94.70;;;;;;5043802;28;20203;-74
2021/09/19 00:57:17;;;;;;;15.23;11.90;;;13.80;95.10;;;;;;5045144;28;20265;-75
2021/09/19 00:59:48;;;;;;;16.90;12.25;;;13.70;95.50;;;;;;5053318;28;20238;-75
2021/09/19 01:02:17;;;;;;;12.27;10.98;;;13.70;96.20;;;;;;5055333;28;20262;-75
2021/09/19 01:04:45;;;;;;;13.50;12.10;;;13.60;96.40;;;;;;5039926;28;20242;-75
2021/09/19 01:07:12;;;;;;;13.68;11.63;;;13.60;96.60;;;;;;5038391;28;20217;-75
2021/09/19 01:09:41;;;;;;;13.82;12.52;;;13.60;96.70;;;;;;5041247;28;20322;-75
2021/09/19 01:12:10;;;;;;;13.43;12.02;;;13.60;97.20;;;;;;5041672;28;20235;-75
2021/09/19 01:14:39;;;;;;;13.98;12.48;;;13.50;97.10;;;;;;5045032;28;20226;-75
2021/09/19 01:17:07;;;;;;;13.68;12.27;;;13.50;97.70;;;;;;5046735;28;20228;-75
2021/09/19 01:19:37;;;;;;;13.13;11.75;;;13.50;98.10;;;;;;5049738;28;20207;-76
2021/09/19 01:22:06;;;;;;;13.68;12.00;;;13.40;98.10;;;;;;5046115;28;20760;-76
2021/09/19 01:24:34;;;;;;;14.88;12.88;;;13.40;98.30;;;;;;5046988;28;20242;-75
2021/09/19 01:27:01;;;;;;;13.48;11.70;;;13.30;99.10;;;;;;5045889;28;20241;-75
2021/09/19 01:29:28;;;;;;;15.13;13.38;;;13.30;99.00;;;;;;5050309;28;20249;-76
2021/09/19 01:31:57;;;;;;;13.52;12.13;;;13.30;99.10;;;;;;5037064;28;20258;-74
2021/09/19 01:34:24;;;;;;;13.90;12.02;;;13.20;99.50;;;;;;5033966;28;20558;-76
2021/09/19 01:36:51;;;;;;;12.63;11.38;;;13.10;99.90;;;;;;5035450;28;20567;-75
2021/09/19 01:39:19;;;;;;;14.25;12.25;;;13.10;99.90;;;;;;5044318;28;20206;-76
2021/09/19 01:41:49;;;;;;;12.25;10.70;;;13.10;99.90;;;;;;5051571;28;20634;-74
2021/09/19 01:44:17;;;;;;;12.02;10.82;;;13.00;99.90;;;;;;5034531;28;20202;-74
2021/09/19 01:46:43;;;;;;;12.95;11.65;;;13.00;99.90;;;;;;5035272;28;20257;-75
2021/09/19 01:49:10;;;;;;;12.00;10.73;;;13.00;99.90;;;;;;5034160;28;20752;-74
2021/09/19 01:51:38;;;;;;;11.85;10.65;;;12.90;99.90;;;;;;5035452;28;20253;-73
2021/09/19 01:54:05;;;;;;;11.32;10.23;;;12.90;99.90;;;;;;5034765;28;20304;-74
2021/09/19 01:56:32;;;;;;;12.10;10.77;;;12.90;99.90;;;;;;5035502;28;20674;-75
2021/09/19 01:59:00;;;;;;;11.00;9.88;;;12.80;99.90;;;;;;5042872;28;20680;-75
2021/09/19 02:01:30;;;;;;;12.27;10.45;;;12.90;99.90;;;;;;5041562;28;20307;-76
2021/09/19 02:03:57;;;;;;;12.30;10.43;;;12.80;99.90;;;;;;5049921;28;20206;-75
2021/09/19 02:06:24;;;;;;;13.75;9.40;;;12.80;99.90;;;;;;5051289;28;20733;-75
2021/09/19 02:08:51;;;;;;;12.80;10.32;;;12.80;99.90;;;;;;5047340;28;20227;-76
2021/09/19 02:11:20;;;;;;;11.38;10.25;;;12.80;99.90;;;;;;5049807;28;20229;-75
2021/09/19 02:13:48;;;;;;;12.00;10.75;;;12.70;99.90;;;;;;5050921;28;20205;-74
2021/09/19 02:16:20;;;;;;;11.82;10.65;;;12.80;99.90;;;;;;5052751;28;20238;-75
2021/09/19 02:18:47;;;;;;;10.75;9.65;;;12.70;99.90;;;;;;5047284;28;20209;-75
2021/09/19 02:21:15;;;;;;;10.25;9.25;;;12.70;99.90;;;;;;5043072;28;20261;-75
2021/09/19 02:23:42;;;;;;;11.23;9.63;;;12.70;99.90;;;;;;5046987;28;20233;-75
2021/09/19 02:26:09;;;;;;;10.15;8.95;;;12.70;99.90;;;;;;5041046;28;20277;-75
2021/09/19 02:28:36;;;;;;;9.90;9.00;;;12.60;99.90;;;;;;5042161;28;20265;-75
2021/09/19 02:31:03;;;;;;;11.82;9.05;;;12.60;99.90;;;;;;5047408;28;20321;-74
2021/09/19 02:33:32;;;;;;;10.32;8.38;;;12.60;99.90;;;;;;5043045;28;20207;-75
2021/09/19 02:35:58;;;;;;;11.38;10.38;;;12.60;99.90;;;;;;5040252;28;20243;-75
2021/09/19 02:38:25;;;;;;;9.60;8.60;;;12.50;99.90;;;;;;5039298;28;20301;-77
2021/09/19 02:40:52;;;;;;;9.70;8.80;;;12.50;99.90;;;;;;5039080;28;20322;-76
2021/09/19 02:43:19;;;;;;;10.40;9.20;;;12.40;99.90;;;;;;5040890;28;20336;-75
2021/09/19 02:45:46;;;;;;;10.88;9.77;;;12.40;99.90;;;;;;5039569;28;20540;-75
2021/09/19 02:48:13;;;;;;;10.70;9.45;;;12.40;99.90;;;;;;5040088;28;20205;-75
2021/09/19 02:50:42;;;;;;;10.13;8.35;;;12.40;99.90;;;;;;5042111;28;20238;-75
2021/09/19 02:53:09;;;;;;;10.05;9.05;;;12.40;99.90;;;;;;5042290;28;20297;-75
2021/09/19 02:55:36;;;;;;;9.98;8.95;;;12.40;99.90;;;;;;5040973;28;20238;-75
2021/09/19 02:58:03;;;;;;;11.48;10.30;;;12.40;99.90;;;;;;5040380;28;20233;-75
2021/09/19 03:00:30;;;;;;;10.48;9.48;;;12.40;99.90;;;;;;5042444;28;20226;-74
2021/09/19 03:02:57;;;;;;;12.70;9.60;;;12.40;99.90;;;;;;5048587;28;20293;-74
2021/09/19 03:05:24;;;;;;;9.65;8.75;;;12.40;99.90;;;;;;5049907;28;20248;-74
2021/09/19 03:07:54;;;;;;;9.93;8.40;;;12.40;99.90;;;;;;5039269;28;20217;-75
2021/09/19 03:10:21;;;;;;;9.25;8.35;;;12.40;99.90;;;;;;5037956;28;20214;-75
2021/09/19 03:12:48;;;;;;;9.80;8.90;;;12.40;99.90;;;;;;5042512;28;20227;-75
2021/09/19 03:15:15;;;;;;;9.13;8.30;;;12.40;99.90;;;;;;5046438;28;20238;-73
2021/09/19 03:17:42;;;;;;;10.80;8.55;;;12.40;99.90;;;;;;5052136;28;20646;-75
2021/09/19 03:20:12;;;;;;;9.15;8.25;;;12.40;99.90;;;;;;5053116;28;20202;-74
2021/09/19 03:22:39;;;;;;;9.05;8.15;;;12.40;99.90;;;;;;5052780;28;20232;-74
2021/09/19 03:25:09;;;;;;;9.27;8.05;;;12.40;99.90;;;;;;5055771;28;20273;-75
2021/09/19 03:27:37;;;;;;;9.50;8.52;;;12.40;99.90;;;;;;5055882;28;20221;-76
2021/09/19 03:30:05;;;;;;;9.10;8.00;;;12.30;99.90;;;;;;5054822;28;20295;-75
2021/09/19 03:32:32;;;;;;;10.52;8.45;;;12.30;99.90;;;;;;5055729;28;20225;-75
2021/09/19 03:34:59;;;;;;;9.82;8.43;;;12.30;99.90;;;;;;5050397;28;20236;-74
2021/09/19 03:37:26;;;;;;;11.25;7.90;;;12.30;99.90;;;;;;5048117;28;20206;-75
2021/09/19 03:39:53;;;;;;;9.25;7.88;;;12.20;99.90;;;;;;5053826;28;20206;-74
2021/09/19 03:42:21;;;;;;;9.85;7.90;;;12.30;99.90;;;;;;5044723;28;20298;-73
2021/09/19 03:44:49;;;;;;;8.93;8.02;;;12.20;99.90;;;;;;5051810;28;20233;-74
2021/09/19 03:47:16;;;;;;;8.40;7.00;;;12.20;99.90;;;;;;5037708;28;20210;-74
2021/09/19 03:49:44;;;;;;;7.78;7.07;;;12.20;99.90;;;;;;5037153;28;20265;-74
2021/09/19 03:52:11;;;;;;;7.85;7.00;;;12.20;99.90;;;;;;5036165;28;20254;-74
2021/09/19 03:54:38;;;;;;;7.18;6.57;;;12.10;99.90;;;;;;5036522;28;20309;-74
2021/09/19 03:57:05;;;;;;;6.65;6.05;;;12.10;99.90;;;;;;5036910;28;20221;-73
2021/09/19 03:59:33;;;;;;;7.35;6.65;;;12.00;99.90;;;;;;5016908;28;20202;-75
2021/09/19 04:02:00;;;;;;;8.07;6.25;;;12.00;99.90;;;;;;5037336;23;20233;-74
2021/09/19 04:04:27;;;;;;;6.80;6.20;;;11.90;99.90;;;;;;5035249;28;20244;-75
2021/09/19 04:06:54;;;;;;;6.97;6.35;;;11.90;99.90;;;;;;5035322;28;20300;-75
2021/09/19 04:09:21;;;;;;;8.25;6.07;;;11.90;99.90;;;;;;5034960;28;20233;-75
2021/09/19 04:11:48;;;;;;;7.60;6.80;;;11.80;99.90;;;;;;5035123;28;20311;-75
2021/09/19 04:14:15;;;;;;;7.80;6.63;;;11.80;99.90;;;;;;5036715;28;20237;-75
2021/09/19 04:16:43;;;;;;;7.30;6.55;;;11.80;99.90;;;;;;5036157;28;20237;-73
2021/09/19 04:19:10;;;;;;;7.10;6.22;;;11.70;99.90;;;;;;5035657;28;20210;-73
2021/09/19 04:21:37;;;;;;;9.40;7.03;;;11.80;99.90;;;;;;5035475;28;20307;-73
2021/09/19 04:24:05;;;;;;;6.63;5.90;;;11.70;99.90;;;;;;5034649;28;20238;-75
2021/09/19 04:26:32;;;;;;;6.57;5.90;;;11.70;99.90;;;;;;5035128;28;20293;-76
2021/09/19 04:28:59;;;;;;;6.68;6.07;;;11.70;99.90;;;;;;5035547;28;20215;-75
2021/09/19 04:31:26;;;;;;;7.18;6.43;;;11.70;99.90;;;;;;5034572;28;20307;-75
2021/09/19 04:33:54;;;;;;;7.95;5.50;;;11.70;99.90;;;;;;5035738;28;20277;-73
2021/09/19 04:36:21;;;;;;;6.18;5.60;;;11.70;99.90;;;;;;5037021;28;20756;-74
2021/09/19 04:38:47;;;;;;;6.70;5.80;;;11.70;99.90;;;;;;5035767;28;20800;-75
2021/09/19 04:41:14;;;;;;;6.05;5.45;;;11.60;99.90;;;;;;5035208;28;20236;-76
2021/09/19 04:43:41;;;;;;;5.80;5.30;;;11.60;99.90;;;;;;5035327;28;20234;-76
2021/09/19 04:46:08;;;;;;;5.82;5.25;;;11.50;99.90;;;;;;5035423;28;20233;-75
2021/09/19 04:48:35;;;;;;;7.30;5.70;;;11.50;99.90;;;;;;5035630;28;20224;-74
2021/09/19 04:51:03;;;;;;;7.90;5.55;;;11.50;99.90;;;;;;5035115;28;20269;-74
2021/09/19 04:53:30;;;;;;;7.65;5.93;;;11.50;99.90;;;;;;5035514;28;20767;-74
2021/09/19 04:55:57;;;;;;;5.93;5.32;;;11.50;99.90;;;;;;5034705;28;20297;-74
2021/09/19 04:58:24;;;;;;;6.53;5.25;;;11.50;99.90;;;;;;5034277;28;20208;-73
2021/09/19 05:00:51;;;;;;;7.45;5.57;;;11.50;99.90;;;;;;5033512;28;20226;-73
2021/09/19 05:03:18;;;;;;;6.00;5.35;;;11.50;99.90;;;;;;5033966;28;20748;-73
2021/09/19 05:05:45;;;;;;;5.88;5.28;;;11.40;99.90;;;;;;5034364;28;20788;-74
2021/09/19 05:08:13;;;;;;;6.38;5.65;;;11.50;99.90;;;;;;5034641;28;20236;-75
2021/09/19 05:10:40;;;;;;;5.82;5.22;;;11.40;99.90;;;;;;5033661;28;20232;-74
2021/09/19 05:13:07;;;;;;;5.82;5.20;;;11.50;99.90;;;;;;5033830;28;20233;-74
2021/09/19 05:15:34;;;;;;;7.82;6.50;;;11.50;99.90;;;;;;5033611;28;20731;-74
2021/09/19 05:18:00;;;;;;;5.15;4.65;;;11.50;99.90;;;;;;5033846;28;20244;-73
2021/09/19 05:20:28;;;;;;;5.97;5.35;;;11.50;99.90;;;;;;5033012;28;20236;-73
2021/09/19 05:22:54;;;;;;;6.88;4.90;;;11.50;99.90;;;;;;5033346;28;20229;-72
2021/09/19 05:25:23;;;;;;;6.13;5.60;;;11.50;99.90;;;;;;5033981;28;20209;-73
2021/09/19 05:27:51;;;;;;;5.72;5.22;;;11.40;99.90;;;;;;5033670;28;20292;-72
2021/09/19 05:30:18;;;;;;;5.88;5.30;;;11.50;99.90;;;;;;5032854;28;20221;-73
2021/09/19 05:32:45;;;;;;;5.13;4.72;;;11.60;99.90;;;;;;5033347;28;20716;-73
2021/09/19 05:35:12;;;;;;;6.05;4.93;;;11.70;99.90;;;;;;5033277;28;20220;-73
2021/09/19 05:37:39;;;;;;;4.78;4.38;;;11.80;99.90;;;;;;5033979;28;20209;-73
2021/09/19 05:40:10;;;;;;;5.47;4.97;;;11.80;99.90;;;;;;5033274;28;20213;-75
2021/09/19 05:42:39;;;;;;;4.82;4.43;;;11.80;99.40;;;;;;5013449;28;20257;-76
2021/09/19 05:45:07;;;;;;;4.80;4.40;;;11.80;99.20;;;;;;5013903;28;20300;-76
2021/09/19 05:47:34;;;;;;;5.50;4.65;;;11.80;99.40;;;;;;5033278;28;20212;-73
2021/09/19 05:50:01;;;;;;;4.90;4.50;;;11.80;99.50;;;;;;5033935;28;20261;-74
2021/09/19 05:52:28;;;;;;;5.03;4.55;;;11.80;99.60;;;;;;5033255;28;20232;-74
2021/09/19 05:54:54;;;;;;;4.88;4.35;;;11.80;99.70;;;;;;5033158;28;20215;-73
2021/09/19 05:57:21;;;;;;;4.75;4.35;;;11.80;99.50;;;;;;5033040;28;20263;-76
2021/09/19 05:59:50;;;;;;;4.78;4.20;;;11.80;99.40;;;;;;5032729;28;20226;-75
2021/09/19 06:02:17;;;;;;;4.78;4.20;;;11.90;99.20;;;;;;5034233;28;20349;-75
2021/09/19 06:04:44;;;;;;;4.95;4.55;;;11.80;99.20;;;;;;5034681;28;20236;-76
2021/09/19 06:07:11;;;;;;;4.68;4.18;;;11.90;99.20;;;;;;5052518;28;20233;-76
2021/09/19 06:09:38;;;;;;;4.70;4.30;;;12.00;98.90;;;;;;5049108;28;20207;-75
2021/09/19 06:12:05;;;;;;;8.73;4.60;;;12.00;98.40;;;;;;5045239;28;20268;-77
2021/09/19 06:14:32;;;;;;;4.30;3.90;;;12.10;98.10;;;;;;5033578;28;20242;-76
2021/09/19 06:17:00;;;;;;;5.05;4.60;;;12.10;97.50;;;;;;5032934;28;20213;-76
2021/09/19 06:19:27;;;;;;;4.30;3.90;;;12.20;97.30;;;;;;5031928;28;20293;-75
2021/09/19 06:21:56;;;;;;;5.50;4.90;;;12.30;96.60;;;;;;5032776;28;20300;-75
2021/09/19 06:24:23;;;;;;;4.72;4.32;;;12.30;96.20;;;;;;5032951;28;20214;-75
2021/09/19 06:26:49;;;;;;;5.50;4.93;;;12.40;95.80;;;;;;5050051;28;20221;-76
2021/09/19 06:29:16;;;;;;;4.75;4.25;;;12.40;95.30;;;;;;5053746;28;20576;-74
2021/09/19 06:31:43;;;;;;;5.93;4.68;;;12.50;94.50;;;;;;5039992;28;20324;-75
2021/09/19 06:34:12;;;;;;;6.45;4.78;;;12.50;94.50;;;;;;5032994;28;20681;-75
2021/09/19 06:36:39;;;;;;;4.53;4.13;;;12.60;94.10;;;;;;5033267;28;20289;-75
2021/09/19 06:39:06;;;;;;;5.00;4.45;;;12.60;93.60;;;;;;5033811;28;20237;-74
2021/09/19 06:41:33;;;;;;;4.85;4.38;;;12.70;93.40;;;;;;5034996;28;20283;-75
2021/09/19 06:44:00;;;;;;;4.60;4.20;;;12.70;92.80;;;;;;5039047;28;20230;-77
2021/09/19 06:46:30;;;;;;;4.40;4.10;;;12.80;92.40;;;;;;5038754;28;20202;-77
2021/09/19 06:48:57;;;;;;;5.05;4.65;;;12.80;92.40;;;;;;5039459;28;20232;-77
2021/09/19 06:51:26;;;;;;;4.60;4.20;;;12.90;91.90;;;;;;5040686;28;20242;-75
2021/09/19 06:53:53;;;;;;;4.20;3.90;;;12.90;91.40;;;;;;5034785;28;20681;-76
2021/09/19 06:56:21;;;;;;;5.40;4.50;;;13.00;91.10;;;;;;5036138;28;20304;-76
2021/09/19 06:58:48;;;;;;;4.72;4.32;;;12.90;90.90;;;;;;5034935;28;20297;-75
2021/09/19 07:01:16;;;;;;;4.57;4.18;;;13.00;90.90;;;;;;5032647;28;20725;-76
2021/09/19 07:03:43;;;;;;;4.45;3.90;;;13.10;90.70;;;;;;5031904;28;20202;-75
2021/09/19 07:06:10;;;;;;;6.13;4.30;;;13.20;90.30;;;;;;5034395;28;20293;-75
2021/09/19 07:08:39;;;;;;;5.55;4.00;;;13.30;88.90;;;;;;5037763;28;20249;-75
2021/09/19 07:11:05;;;;;;;4.85;4.45;;;13.40;88.80;;;;;;5040791;28;20257;-76
2021/09/19 07:13:32;;;;;;;4.57;4.03;;;13.40;88.30;;;;;;5052676;28;20768;-76
2021/09/19 07:15:59;;;;;;;5.05;4.55;;;13.50;86.90;;;;;;5040457;28;20285;-75
2021/09/19 07:18:26;;;;;;;4.70;4.30;;;13.60;87.50;;;;;;5032814;28;20735;-74
2021/09/19 07:20:54;;;;;;;4.20;3.80;;;13.80;85.80;;;;;;5032501;28;20214;-74
2021/09/19 07:23:22;;;;;;;4.40;4.00;;;13.90;84.60;;;;;;5014369;28;20616;-74
2021/09/19 07:25:50;;;;;;;4.38;4.00;;;14.00;83.20;;;;;;5012137;28;20255;-75
2021/09/19 07:28:18;;;;;;;5.45;4.18;;;14.10;81.30;;;;;;5031031;28;20276;-74
2021/09/19 07:30:45;;;;;;;4.15;3.70;;;14.20;80.10;;;;;;5031091;28;20310;-76
2021/09/19 07:33:12;;;;;;;4.50;4.10;;;14.10;80.00;;;;;;5031128;28;20306;-74
2021/09/19 07:35:39;;;;;;;4.97;4.35;;;14.20;80.10;;;;;;5032007;28;20262;-76
2021/09/19 07:38:07;;;;;;;3.95;3.65;;;14.20;80.10;;;;;;5033518;28;20230;-75
2021/09/19 07:40:34;;;;;;;7.75;4.05;;;14.40;78.60;;;;;;5033442;28;20230;-75
2021/09/19 07:43:04;;;;;;;4.72;3.55;;;14.40;77.20;;;;;;5041433;28;20242;-77
2021/09/19 07:45:31;;;;;;;4.40;4.00;;;14.50;78.80;;;;;;5046210;28;20266;-76
2021/09/19 07:47:58;;;;;;;4.05;3.67;;;14.60;76.70;;;;;;5046565;28;20234;-76
2021/09/19 07:50:26;;;;;;;4.68;4.28;;;14.60;76.70;;;;;;5044228;28;20242;-76
2021/09/19 07:52:53;;;;;;;3.88;3.58;;;14.70;75.90;;;;;;5041864;28;20219;-75
2021/09/19 07:55:20;;;;;;;6.53;4.40;;;14.80;75.20;;;;;;5034328;28;20204;-74
2021/09/19 07:57:47;;;;;;;4.18;3.80;;;14.80;73.00;;;;;;5034339;28;20286;-75
2021/09/19 08:00:16;;;;;;;4.30;3.67;;;14.70;75.30;;;;;;5039511;28;20294;-76
2021/09/19 08:02:43;;;;;;;7.50;4.20;;;14.90;75.30;;;;;;5038219;28;20257;-77
2021/09/19 08:05:10;;;;;;;4.95;3.90;;;15.20;74.50;;;;;;5039070;28;20989;-76
2021/09/19 08:07:37;;;;;;;3.65;3.35;;;15.30;72.40;;;;;;5040141;28;20399;-75
2021/09/19 08:10:05;;;;;;;4.50;3.77;;;15.40;72.50;;;;;;5038963;28;20274;-75
2021/09/19 08:12:33;;;;;;;6.72;4.00;;;15.30;73.10;;;;;;5037244;28;20500;-75
2021/09/19 08:14:59;;;;;;;5.30;3.95;;;15.40;71.40;;;;;;5050883;28;20536;-74
2021/09/19 08:17:28;;;;;;;3.67;3.37;;;15.50;71.00;;;;;;5056840;28;20616;-77
2021/09/19 08:19:55;;;;;;;4.20;3.50;;;15.80;70.80;;;;;;5055555;28;20463;-77
2021/09/19 08:22:21;;;;;;;5.45;4.20;;;15.90;69.30;;;;;;5056857;28;20500;-74
2021/09/19 08:24:48;;;;;;;4.43;4.03;;;15.80;68.40;;;;;;5051938;28;20219;-77
2021/09/19 08:27:15;;;;;;;3.53;3.27;;;15.70;68.80;;;;;;5044328;28;20471;-74
2021/09/19 08:29:43;;;;;;;4.00;3.70;;;15.90;69.80;;;;;;5040374;28;20441;-73
2021/09/19 08:32:10;;;;;;;4.20;3.80;;;16.00;69.30;;;;;;5039140;28;20528;-73
2021/09/19 08:34:41;;;;;;;3.55;3.25;;;16.20;68.50;;;;;;5039250;28;20429;-77
2021/09/19 08:37:08;;;;;;;3.43;3.13;;;16.10;69.00;;;;;;5038816;28;20205;-73
2021/09/19 08:39:35;;;;;;;4.40;3.73;;;16.20;68.80;;;;;;5046670;28;20483;-78
2021/09/19 08:42:03;;;;;;;3.90;3.60;;;16.20;67.80;;;;;;5048889;28;20441;-76
2021/09/19 08:44:30;;;;;;;3.60;3.30;;;16.30;68.10;;;;;;5042920;28;20455;-74
2021/09/19 08:46:59;;;;;;;4.47;3.47;;;16.30;67.90;;;;;;5036990;28;20481;-72
2021/09/19 08:49:26;;;;;;;3.90;3.60;;;16.30;67.90;;;;;;5036761;28;20542;-73
2021/09/19 08:51:54;;;;;;;3.90;3.50;;;16.40;66.50;;;;;;5036847;28;21015;-74
2021/09/19 08:54:21;;;;;;;4.53;4.13;;;16.50;66.70;;;;;;5036546;28;20456;-73
2021/09/19 08:56:48;;;;;;;3.40;3.20;;;16.50;66.70;;;;;;5036101;28;20501;-72
2021/09/19 08:59:15;;;;;;;3.90;3.60;;;16.60;66.30;;;;;;5036203;28;20487;-74
2021/09/19 09:01:58;;;;;;;3.50;3.20;;;16.80;65.70;;;;;;5036361;28;20491;-73
2021/09/19 09:04:25;;;;;;;4.30;3.90;;;16.80;64.90;;;;;;5035951;28;20612;-73
2021/09/19 09:06:55;;;;;;;5.80;4.10;;;16.80;64.90;;;;;;5036907;28;20488;-73
2021/09/19 09:09:22;;;;;;;3.63;3.33;;;16.80;64.90;;;;;;5036140;28;20540;-74
2021/09/19 09:12:06;;;;;;;3.87;3.57;;;16.80;64.90;;;;;;5036646;28;20611;-72
2021/09/19 09:14:39;;;;;;;4.10;3.80;;;17.00;65.00;;;;;;5037583;28;20527;-72
2021/09/19 09:17:15;;;;;;;3.23;3.03;;;17.00;64.20;;;;;;5037522;28;20474;-78
2021/09/19 09:19:43;;;;;;;4.20;3.80;;;17.20;64.30;;;;;;5042022;28;20458;-73
2021/09/19 09:22:11;;;;;;;7.43;3.80;;;17.40;62.50;;;;;;5042695;28;20469;-75
2021/09/19 09:24:39;;;;;;;4.17;3.30;;;17.50;62.20;;;;;;5042866;28;20442;-73
2021/09/19 09:27:20;;;;;;;3.40;3.10;;;17.40;62.40;;;;;;5039651;28;20514;-73
2021/09/19 09:30:08;;;;;;;4.07;3.77;;;17.50;61.20;;;;;;5039101;28;20582;-74
2021/09/19 09:32:57;;;;;;;3.63;3.33;;;17.30;62.60;;;;;;5038511;28;20539;-75
2021/09/19 09:35:26;;;;;;;5.90;4.20;;;17.60;61.60;;;;;;5040967;28;20442;-73
2021/09/19 09:37:54;;;;;;;3.70;3.40;;;17.80;60.00;;;;;;5037012;28;20517;-73
2021/09/19 09:40:27;;;;;;;4.30;3.20;;;17.90;59.50;;;;;;5037314;28;20507;-73
2021/09/19 09:43:06;;;;;;;3.27;3.03;;;17.90;60.00;;;;;;5037024;28;20492;-76
2021/09/19 09:45:35;;;;;;;4.20;3.80;;;18.10;59.40;;;;;;5037321;28;20540;-73
2021/09/19 09:48:02;;;;;;;4.23;3.83;;;18.10;58.00;;;;;;5036692;28;20458;-72
2021/09/19 09:50:30;;;;;;;4.03;3.53;;;18.30;58.10;;;;;;5035788;28;20552;-73
2021/09/19 09:53:11;;;;;;;3.97;3.67;;;18.20;57.70;;;;;;5035504;28;20512;-73
2021/09/19 09:55:45;;;;;;;4.13;3.77;;;18.20;58.00;;;;;;5035723;28;20489;-73
2021/09/19 09:58:13;;;;;;;3.60;3.30;;;18.40;57.10;;;;;;5035339;28;20412;-73
2021/09/19 10:00:42;;;;;;;4.20;3.90;;;18.40;57.10;;;;;;5034431;28;20969;-72
2021/09/19 10:03:09;;;;;;;4.33;3.93;;;18.30;57.00;;;;;;5054670;23;20588;-73
2021/09/19 10:05:36;;;;;;;4.00;3.70;;;18.30;57.90;;;;;;5034311;28;20456;-75
2021/09/19 10:08:03;;;;;;;3.57;3.27;;;18.40;57.10;;;;;;5037332;28;20447;-77
2021/09/19 10:10:38;;;;;;;3.80;3.50;;;18.70;57.40;;;;;;5036104;28;20488;-77
2021/09/19 10:13:05;;;;;;;3.70;3.40;;;19.00;56.50;;;;;;5036776;28;20499;-76
2021/09/19 10:15:33;;;;;;;3.47;3.17;;;19.10;55.50;;;;;;5034071;28;20519;-75
2021/09/19 10:18:00;;;;;;;3.70;3.40;;;19.30;55.30;;;;;;5036084;28;20512;-75
2021/09/19 10:20:30;;;;;;;4.33;3.70;;;19.30;54.60;;;;;;5034990;28;20493;-75
2021/09/19 10:23:05;;;;;;;4.13;3.73;;;19.10;55.00;;;;;;5034294;28;20515;-75
2021/09/19 10:25:39;;;;;;;3.93;3.53;;;18.70;57.40;;;;;;5036566;28;20500;-76
2021/09/19 10:28:18;;;;;;;4.10;3.50;;;19.00;56.00;;;;;;5038295;28;20478;-76
2021/09/19 10:31:19;;;;;;;5.20;4.20;;;19.40;55.20;;;;;;5035862;28;20549;-76
2021/09/19 10:33:50;;;;;;;3.73;3.43;;;19.10;55.30;;;;;;5034674;28;20441;-74
2021/09/19 10:36:30;;;;;;;4.23;3.83;;;19.10;55.70;;;;;;5035283;28;20523;-74
2021/09/19 10:39:21;;;;;;;4.03;3.73;;;19.40;53.50;;;;;;5035079;28;20457;-76
2021/09/19 10:42:25;;;;;;;4.37;4.00;;;19.30;54.00;;;;;;5041388;28;20475;-74
2021/09/19 10:45:16;;;;;;;4.10;3.80;;;19.50;53.30;;;;;;5036699;28;20469;-75
2021/09/19 10:47:49;;;;;;;4.60;4.20;;;19.60;52.80;;;;;;5024763;28;20454;-74
2021/09/19 10:50:26;;;;;;;4.20;3.90;;;19.00;54.70;;;;;;5033397;28;20520;-74
2021/09/19 10:52:55;;;;;;;4.50;4.10;;;19.20;54.40;;;;;;5032673;28;20498;-74
2021/09/19 10:55:26;;;;;;;4.80;4.40;;;19.00;55.10;;;;;;5032610;28;20457;-74
2021/09/19 10:57:57;;;;;;;5.00;3.60;;;19.20;54.20;;;;;;5033116;28;20458;-73
2021/09/19 11:00:25;;;;;;;5.57;4.63;;;19.40;54.30;;;;;;5032936;28;20460;-73
2021/09/19 11:03:04;;;;;;;5.20;4.80;;;19.60;52.70;;;;;;5036542;28;20487;-75
2021/09/19 11:05:32;;;;;;;4.30;3.90;;;19.60;52.10;;;;;;5038642;28;20502;-74
2021/09/19 11:08:28;;;;;;;4.10;3.80;;;19.70;52.50;;;;;;5036984;28;20450;-74
2021/09/19 11:11:10;;;;;;;5.50;5.00;;;20.00;51.30;;;;;;5025991;28;20455;-74
2021/09/19 11:13:42;;;;;;;4.80;4.40;;;20.00;50.70;;;;;;5033266;28;20840;-76
2021/09/19 11:16:37;;;;;;;5.67;5.17;;;19.60;51.80;;;;;;5033455;28;20518;-76
2021/09/19 11:19:06;;;;;;;5.43;5.03;;;19.80;50.90;;;;;;5020031;28;20504;-74
2021/09/19 11:21:37;;;;;;;5.47;4.63;;;19.70;51.10;;;;;;5033045;28;20539;-75
2021/09/19 11:24:06;;;;;;;5.07;4.00;;;19.90;51.30;;;;;;5032950;28;20437;-73
2021/09/19 11:26:36;;;;;;;6.57;4.73;;;20.30;49.10;;;;;;5032625;28;20454;-75
2021/09/19 11:29:07;;;;;;;7.03;4.53;;;20.30;49.10;;;;;;5033726;28;20451;-74
2021/09/19 11:31:35;;;;;;;5.93;5.33;;;20.30;49.10;;;;;;5036050;28;20498;-74
2021/09/19 11:34:08;;;;;;;6.37;5.07;;;20.60;47.60;;;;;;5055775;28;20410;-73
2021/09/19 11:36:40;;;;;;;6.50;5.90;;;20.90;45.50;;;;;;5057219;28;20460;-74
2021/09/19 11:39:07;;;;;;;5.97;5.40;;;20.80;45.40;;;;;;5058016;28;20450;-73
2021/09/19 11:41:35;;;;;;;6.47;5.83;;;20.70;45.40;;;;;;5044971;28;20479;-73
2021/09/19 11:44:02;;;;;;;5.83;5.23;;;20.50;46.40;;;;;;5037511;28;20643;-75
2021/09/19 11:46:31;;;;;;;6.00;5.17;;;20.80;47.00;;;;;;5037530;28;20559;-73
2021/09/19 11:48:58;;;;;;;5.83;5.33;;;21.10;47.20;;;;;;5037410;28;20547;-75
2021/09/19 11:51:25;;;;;;;5.40;5.00;;;20.50;47.70;;;;;;5036773;28;20876;-75
2021/09/19 11:53:54;;;;;;;5.60;5.00;;;20.60;48.20;;;;;;5036494;28;20531;-76
2021/09/19 11:56:22;;;;;;;5.90;5.40;;;20.80;47.80;;;;;;5035918;28;20522;-74
2021/09/19 11:58:51;;;;;;;5.03;4.57;;;21.10;46.80;;;;;;5035627;28;20480;-73
2021/09/19 12:01:22;;;;;;;5.17;4.77;;;21.30;46.30;;;;;;5031590;28;20623;-75
2021/09/19 12:03:51;;;;;;;5.03;4.50;;;21.10;46.40;;;;;;5035302;28;20513;-74
2021/09/19 12:06:18;;;;;;;4.47;4.13;;;21.30;46.40;;;;;;5034306;28;20435;-75
2021/09/19 12:08:45;;;;;;;4.53;4.13;;;21.40;46.90;;;;;;5034088;28;20460;-73
2021/09/19 12:11:13;;;;;;;4.43;4.13;;;21.50;46.40;;;;;;5034716;28;20874;-73
2021/09/19 12:13:47;;;;;;;4.70;4.30;;;21.40;46.70;;;;;;5034048;28;20489;-74
2021/09/19 12:16:19;;;;;;;4.70;4.30;;;21.20;47.30;;;;;;5034344;28;20460;-73
2021/09/19 12:18:47;;;;;;;4.73;4.33;;;21.20;47.10;;;;;;5034367;28;20472;-74
2021/09/19 12:21:18;;;;;;;5.20;4.80;;;20.80;48.10;;;;;;5034251;28;20458;-74
2021/09/19 12:23:46;;;;;;;4.80;4.30;;;20.70;47.60;;;;;;5037656;28;20445;-73
2021/09/19 12:26:15;;;;;;;4.73;4.33;;;20.80;47.90;;;;;;5032135;28;20465;-74
2021/09/19 12:28:43;;;;;;;4.90;4.50;;;20.90;47.80;;;;;;5026908;28;20461;-74
2021/09/19 12:31:12;;;;;;;4.70;4.40;;;21.00;48.20;;;;;;5033635;28;20504;-73
2021/09/19 12:33:53;;;;;;;4.40;4.00;;;21.10;47.60;;;;;;5034673;28;20932;-74
2021/09/19 12:36:23;;;;;;;5.33;4.33;;;21.00;47.60;;;;;;5033675;28;20467;-75
2021/09/19 12:38:51;;;;;;;5.40;4.80;;;20.60;49.40;;;;;;5032553;28;20460;-75
2021/09/19 12:41:18;;;;;;;6.17;4.80;;;20.60;48.00;;;;;;5032329;28;20463;-74
2021/09/19 12:43:46;;;;;;;5.13;4.73;;;20.40;50.00;;;;;;5031571;28;21025;-74
2021/09/19 12:46:15;;;;;;;5.47;4.97;;;20.30;49.20;;;;;;5032980;28;20531;-75
2021/09/19 12:48:43;;;;;;;4.83;4.50;;;20.30;49.20;;;;;;5034302;28;20441;-74
2021/09/19 12:51:15;;;;;;;7.87;4.80;;;20.30;49.10;;;;;;5033859;28;20460;-75